sensor_id;sensor_type;location;lat;lon;timestamp;temperature;humidity
44517;DHT22;30223;17.182;-96.766;2022-08-19T00:01:44;26.30;67.40
44517;DHT22;30223;17.182;-96.766;2022-08-19T00:04:14;26.30;67.50
44517;DHT22;30223;17.182;-96.766;2022-08-19T00:06:43;26.20;67.50
44517;DHT22;30223;17.182;-96.766;2022-08-19T00:09:12;26.30;67.60
44517;DHT22;30223;17.182;-96.766;2022-08-19T00:11:38;26.30;67.70
44517;DHT22;30223;17.182;-96.766;2022-08-19T00:14:07;26.20;67.60
44517;DHT22;30223;17.182;-96.766;2022-08-19T00:16:34;26.20;67.80
44517;DHT22;30223;17.182;-96.766;2022-08-19T00:19:01;26.20;67.80
44517;DHT22;30223;17.182;-96.766;2022-08-19T00:21:27;26.20;67.80
44517;DHT22;30223;17.182;-96.766;2022-08-19T00:23:55;26.20;67.80
44517;DHT22;30223;17.182;-96.766;2022-08-19T00:26:26;26.20;67.90
44517;DHT22;30223;17.182;-96.766;2022-08-19T00:28:53;26.20;67.90
44517;DHT22;30223;17.182;-96.766;2022-08-19T00:31:20;26.20;67.90
44517;DHT22;30223;17.182;-96.766;2022-08-19T00:33:47;26.20;68.00
44517;DHT22;30223;17.182;-96.766;2022-08-19T00:36:17;26.20;68.00
44517;DHT22;30223;17.182;-96.766;2022-08-19T00:38:43;26.20;68.00
44517;DHT22;30223;17.182;-96.766;2022-08-19T00:41:18;26.20;68.00
44517;DHT22;30223;17.182;-96.766;2022-08-19T00:44:11;26.20;68.00
44517;DHT22;30223;17.182;-96.766;2022-08-19T00:46:41;26.20;68.10
44517;DHT22;30223;17.182;-96.766;2022-08-19T00:51:42;26.20;68.10
44517;DHT22;30223;17.182;-96.766;2022-08-19T00:54:09;26.10;67.90
44517;DHT22;30223;17.182;-96.766;2022-08-19T00:56:36;26.10;68.00
44517;DHT22;30223;17.182;-96.766;2022-08-19T00:59:04;26.10;67.90
44517;DHT22;30223;17.182;-96.766;2022-08-19T01:01:39;26.10;68.00
44517;DHT22;30223;17.182;-96.766;2022-08-19T01:04:07;26.10;67.90
44517;DHT22;30223;17.182;-96.766;2022-08-19T01:06:36;26.10;67.90
44517;DHT22;30223;17.182;-96.766;2022-08-19T01:09:04;26.10;68.00
44517;DHT22;30223;17.182;-96.766;2022-08-19T01:11:33;26.10;68.00
44517;DHT22;30223;17.182;-96.766;2022-08-19T01:14:00;26.00;67.90
44517;DHT22;30223;17.182;-96.766;2022-08-19T01:16:28;26.00;68.00
44517;DHT22;30223;17.182;-96.766;2022-08-19T01:18:55;26.10;68.10
44517;DHT22;30223;17.182;-96.766;2022-08-19T01:23:55;26.00;68.10
44517;DHT22;30223;17.182;-96.766;2022-08-19T01:26:24;26.00;68.00
44517;DHT22;30223;17.182;-96.766;2022-08-19T01:28:55;26.00;68.10
44517;DHT22;30223;17.182;-96.766;2022-08-19T01:31:25;26.00;68.10
44517;DHT22;30223;17.182;-96.766;2022-08-19T01:33:54;26.00;68.10
44517;DHT22;30223;17.182;-96.766;2022-08-19T01:36:25;26.00;68.10
44517;DHT22;30223;17.182;-96.766;2022-08-19T01:38:53;26.00;68.10
44517;DHT22;30223;17.182;-96.766;2022-08-19T01:41:20;26.00;68.10
44517;DHT22;30223;17.182;-96.766;2022-08-19T01:43:50;26.00;68.10
44517;DHT22;30223;17.182;-96.766;2022-08-19T01:46:18;25.90;68.00
44517;DHT22;30223;17.182;-96.766;2022-08-19T01:48:46;26.00;68.10
44517;DHT22;30223;17.182;-96.766;2022-08-19T01:51:13;25.90;68.00
44517;DHT22;30223;17.182;-96.766;2022-08-19T01:53:40;25.90;68.00
44517;DHT22;30223;17.182;-96.766;2022-08-19T01:56:08;25.90;68.00
44517;DHT22;30223;17.182;-96.766;2022-08-19T01:58:39;25.90;68.00
44517;DHT22;30223;17.182;-96.766;2022-08-19T02:01:08;25.90;68.00
44517;DHT22;30223;17.182;-96.766;2022-08-19T02:03:35;25.90;68.00
44517;DHT22;30223;17.182;-96.766;2022-08-19T02:06:02;25.80;68.00
44517;DHT22;30223;17.182;-96.766;2022-08-19T02:08:35;25.80;68.00
44517;DHT22;30223;17.182;-96.766;2022-08-19T02:11:02;25.80;67.90
44517;DHT22;30223;17.182;-96.766;2022-08-19T02:13:29;25.80;68.00
44517;DHT22;30223;17.182;-96.766;2022-08-19T02:15:56;25.80;67.90
44517;DHT22;30223;17.182;-96.766;2022-08-19T02:18:23;25.80;67.90
44517;DHT22;30223;17.182;-96.766;2022-08-19T02:20:50;25.80;67.90
44517;DHT22;30223;17.182;-96.766;2022-08-19T02:23:17;25.80;67.90
44517;DHT22;30223;17.182;-96.766;2022-08-19T02:25:46;25.80;67.90
44517;DHT22;30223;17.182;-96.766;2022-08-19T02:28:14;25.80;67.90
44517;DHT22;30223;17.182;-96.766;2022-08-19T02:30:41;25.80;67.90
44517;DHT22;30223;17.182;-96.766;2022-08-19T02:33:08;25.80;67.90
44517;DHT22;30223;17.182;-96.766;2022-08-19T02:35:35;25.80;67.90
44517;DHT22;30223;17.182;-96.766;2022-08-19T02:38:01;25.80;67.90
44517;DHT22;30223;17.182;-96.766;2022-08-19T02:40:51;25.70;68.40
44517;DHT22;30223;17.182;-96.766;2022-08-19T02:43:19;25.70;67.80
44517;DHT22;30223;17.182;-96.766;2022-08-19T02:45:46;25.70;67.80
44517;DHT22;30223;17.182;-96.766;2022-08-19T02:48:16;25.70;67.80
44517;DHT22;30223;17.182;-96.766;2022-08-19T02:50:43;25.70;67.80
44517;DHT22;30223;17.182;-96.766;2022-08-19T02:53:10;25.70;67.80
44517;DHT22;30223;17.182;-96.766;2022-08-19T02:55:43;25.60;67.60
44517;DHT22;30223;17.182;-96.766;2022-08-19T02:58:11;25.70;67.70
44517;DHT22;30223;17.182;-96.766;2022-08-19T03:00:42;25.70;67.70
44517;DHT22;30223;17.182;-96.766;2022-08-19T03:03:09;25.70;67.70
44517;DHT22;30223;17.182;-96.766;2022-08-19T03:05:36;25.60;67.60
44517;DHT22;30223;17.182;-96.766;2022-08-19T03:08:03;25.60;67.60
44517;DHT22;30223;17.182;-96.766;2022-08-19T03:10:30;25.60;67.60
44517;DHT22;30223;17.182;-96.766;2022-08-19T03:12:56;25.60;67.60
44517;DHT22;30223;17.182;-96.766;2022-08-19T03:15:23;25.60;67.60
44517;DHT22;30223;17.182;-96.766;2022-08-19T03:17:49;25.60;67.50
44517;DHT22;30223;17.182;-96.766;2022-08-19T03:20:16;25.50;67.40
44517;DHT22;30223;17.182;-96.766;2022-08-19T03:22:43;25.50;67.40
44517;DHT22;30223;17.182;-96.766;2022-08-19T03:25:09;25.50;67.40
44517;DHT22;30223;17.182;-96.766;2022-08-19T03:27:37;25.50;67.40
44517;DHT22;30223;17.182;-96.766;2022-08-19T03:30:04;25.50;67.40
44517;DHT22;30223;17.182;-96.766;2022-08-19T03:32:32;25.50;67.40
44517;DHT22;30223;17.182;-96.766;2022-08-19T03:34:59;25.50;67.40
44517;DHT22;30223;17.182;-96.766;2022-08-19T03:37:26;25.50;67.30
44517;DHT22;30223;17.182;-96.766;2022-08-19T03:39:52;25.50;67.30
44517;DHT22;30223;17.182;-96.766;2022-08-19T03:42:19;25.40;67.20
44517;DHT22;30223;17.182;-96.766;2022-08-19T03:44:45;25.40;67.20
44517;DHT22;30223;17.182;-96.766;2022-08-19T03:47:12;25.40;67.20
44517;DHT22;30223;17.182;-96.766;2022-08-19T03:49:43;25.40;67.10
44517;DHT22;30223;17.182;-96.766;2022-08-19T03:52:09;25.40;67.20
44517;DHT22;30223;17.182;-96.766;2022-08-19T03:54:36;25.40;67.20
44517;DHT22;30223;17.182;-96.766;2022-08-19T03:57:04;25.40;67.20
44517;DHT22;30223;17.182;-96.766;2022-08-19T03:59:34;25.40;67.20
44517;DHT22;30223;17.182;-96.766;2022-08-19T04:02:05;25.40;67.10
44517;DHT22;30223;17.182;-96.766;2022-08-19T04:04:34;25.30;67.10
44517;DHT22;30223;17.182;-96.766;2022-08-19T04:07:01;25.30;67.10
44517;DHT22;30223;17.182;-96.766;2022-08-19T04:09:28;25.30;67.00
44517;DHT22;30223;17.182;-96.766;2022-08-19T04:11:56;25.30;67.00
44517;DHT22;30223;17.182;-96.766;2022-08-19T04:14:26;25.30;67.00
44517;DHT22;30223;17.182;-96.766;2022-08-19T04:16:55;25.30;67.00
44517;DHT22;30223;17.182;-96.766;2022-08-19T04:19:21;25.30;66.90
44517;DHT22;30223;17.182;-96.766;2022-08-19T04:21:51;25.20;66.90
44517;DHT22;30223;17.182;-96.766;2022-08-19T04:24:19;25.30;66.90
44517;DHT22;30223;17.182;-96.766;2022-08-19T04:26:47;25.30;66.90
44517;DHT22;30223;17.182;-96.766;2022-08-19T04:29:16;25.30;66.90
44517;DHT22;30223;17.182;-96.766;2022-08-19T04:31:45;25.20;66.90
44517;DHT22;30223;17.182;-96.766;2022-08-19T04:34:13;25.20;66.80
44517;DHT22;30223;17.182;-96.766;2022-08-19T04:36:41;25.20;66.80
44517;DHT22;30223;17.182;-96.766;2022-08-19T04:39:16;25.20;66.80
44517;DHT22;30223;17.182;-96.766;2022-08-19T04:41:44;25.20;66.80
44517;DHT22;30223;17.182;-96.766;2022-08-19T04:44:30;25.20;66.80
44517;DHT22;30223;17.182;-96.766;2022-08-19T04:46:57;25.10;66.70
44517;DHT22;30223;17.182;-96.766;2022-08-19T04:49:24;25.10;66.70
44517;DHT22;30223;17.182;-96.766;2022-08-19T04:51:53;25.10;66.70
44517;DHT22;30223;17.182;-96.766;2022-08-19T04:54:22;25.10;66.70
44517;DHT22;30223;17.182;-96.766;2022-08-19T04:56:53;25.10;66.70
44517;DHT22;30223;17.182;-96.766;2022-08-19T04:59:21;25.10;66.70
44517;DHT22;30223;17.182;-96.766;2022-08-19T05:01:48;25.10;66.60
44517;DHT22;30223;17.182;-96.766;2022-08-19T05:04:19;25.10;66.60
44517;DHT22;30223;17.182;-96.766;2022-08-19T05:06:48;25.00;66.60
44517;DHT22;30223;17.182;-96.766;2022-08-19T05:09:15;25.10;66.60
44517;DHT22;30223;17.182;-96.766;2022-08-19T05:11:43;25.10;66.60
44517;DHT22;30223;17.182;-96.766;2022-08-19T05:14:10;25.00;66.50
44517;DHT22;30223;17.182;-96.766;2022-08-19T05:16:39;25.00;66.50
44517;DHT22;30223;17.182;-96.766;2022-08-19T05:19:06;25.00;66.50
44517;DHT22;30223;17.182;-96.766;2022-08-19T05:21:50;25.00;66.50
44517;DHT22;30223;17.182;-96.766;2022-08-19T05:24:36;25.00;66.50
44517;DHT22;30223;17.182;-96.766;2022-08-19T05:27:03;25.00;66.50
44517;DHT22;30223;17.182;-96.766;2022-08-19T05:29:32;25.00;66.50
44517;DHT22;30223;17.182;-96.766;2022-08-19T05:32:01;25.00;66.50
44517;DHT22;30223;17.182;-96.766;2022-08-19T05:34:28;25.00;66.50
44517;DHT22;30223;17.182;-96.766;2022-08-19T05:36:58;25.00;66.50
44517;DHT22;30223;17.182;-96.766;2022-08-19T05:39:28;25.00;66.50
44517;DHT22;30223;17.182;-96.766;2022-08-19T05:41:58;25.00;66.50
44517;DHT22;30223;17.182;-96.766;2022-08-19T05:44:27;24.90;66.40
44517;DHT22;30223;17.182;-96.766;2022-08-19T05:47:00;24.90;66.40
44517;DHT22;30223;17.182;-96.766;2022-08-19T05:49:28;24.90;66.40
44517;DHT22;30223;17.182;-96.766;2022-08-19T05:51:55;24.90;66.40
44517;DHT22;30223;17.182;-96.766;2022-08-19T05:54:23;24.90;66.40
44517;DHT22;30223;17.182;-96.766;2022-08-19T05:56:52;24.80;66.30
44517;DHT22;30223;17.182;-96.766;2022-08-19T05:59:19;24.90;66.30
44517;DHT22;30223;17.182;-96.766;2022-08-19T06:01:48;24.80;66.30
44517;DHT22;30223;17.182;-96.766;2022-08-19T06:04:20;24.80;66.30
44517;DHT22;30223;17.182;-96.766;2022-08-19T06:06:49;24.80;66.30
44517;DHT22;30223;17.182;-96.766;2022-08-19T06:09:18;24.80;66.30
44517;DHT22;30223;17.182;-96.766;2022-08-19T06:11:50;24.80;66.30
44517;DHT22;30223;17.182;-96.766;2022-08-19T06:14:22;24.80;66.30
44517;DHT22;30223;17.182;-96.766;2022-08-19T06:16:49;24.80;66.30
44517;DHT22;30223;17.182;-96.766;2022-08-19T06:19:20;24.80;66.30
44517;DHT22;30223;17.182;-96.766;2022-08-19T06:21:49;24.70;66.20
44517;DHT22;30223;17.182;-96.766;2022-08-19T06:24:19;24.70;66.20
44517;DHT22;30223;17.182;-96.766;2022-08-19T06:26:48;24.80;66.30
44517;DHT22;30223;17.182;-96.766;2022-08-19T06:29:16;24.70;66.30
44517;DHT22;30223;17.182;-96.766;2022-08-19T06:31:46;24.70;66.30
44517;DHT22;30223;17.182;-96.766;2022-08-19T06:34:13;24.70;66.20
44517;DHT22;30223;17.182;-96.766;2022-08-19T06:37:00;24.70;66.20
44517;DHT22;30223;17.182;-96.766;2022-08-19T06:39:30;24.60;66.10
44517;DHT22;30223;17.182;-96.766;2022-08-19T06:41:59;24.70;66.20
44517;DHT22;30223;17.182;-96.766;2022-08-19T06:44:27;24.70;66.20
44517;DHT22;30223;17.182;-96.766;2022-08-19T06:46:55;24.60;66.10
44517;DHT22;30223;17.182;-96.766;2022-08-19T06:49:22;24.60;66.20
44517;DHT22;30223;17.182;-96.766;2022-08-19T06:51:49;24.60;66.10
44517;DHT22;30223;17.182;-96.766;2022-08-19T06:54:17;24.60;66.20
44517;DHT22;30223;17.182;-96.766;2022-08-19T06:56:44;24.60;66.20
44517;DHT22;30223;17.182;-96.766;2022-08-19T06:59:15;24.60;66.20
44517;DHT22;30223;17.182;-96.766;2022-08-19T07:01:50;24.50;66.10
44517;DHT22;30223;17.182;-96.766;2022-08-19T07:04:20;24.50;66.10
44517;DHT22;30223;17.182;-96.766;2022-08-19T07:06:48;24.60;66.20
44517;DHT22;30223;17.182;-96.766;2022-08-19T07:09:16;24.50;66.70
44517;DHT22;30223;17.182;-96.766;2022-08-19T07:11:48;24.50;66.20
44517;DHT22;30223;17.182;-96.766;2022-08-19T07:14:17;24.50;66.20
44517;DHT22;30223;17.182;-96.766;2022-08-19T07:16:45;24.50;66.20
44517;DHT22;30223;17.182;-96.766;2022-08-19T07:19:12;24.50;66.20
44517;DHT22;30223;17.182;-96.766;2022-08-19T07:21:39;24.50;66.20
44517;DHT22;30223;17.182;-96.766;2022-08-19T07:24:06;24.50;66.20
44517;DHT22;30223;17.182;-96.766;2022-08-19T07:26:37;24.50;66.20
44517;DHT22;30223;17.182;-96.766;2022-08-19T07:29:05;24.50;66.20
44517;DHT22;30223;17.182;-96.766;2022-08-19T07:31:32;24.40;66.20
44517;DHT22;30223;17.182;-96.766;2022-08-19T07:34:07;24.40;66.20
44517;DHT22;30223;17.182;-96.766;2022-08-19T07:36:37;24.40;66.10
44517;DHT22;30223;17.182;-96.766;2022-08-19T07:39:16;24.40;66.20
44517;DHT22;30223;17.182;-96.766;2022-08-19T07:41:43;24.40;66.20
44517;DHT22;30223;17.182;-96.766;2022-08-19T07:44:11;24.40;66.20
44517;DHT22;30223;17.182;-96.766;2022-08-19T07:46:42;24.40;66.20
44517;DHT22;30223;17.182;-96.766;2022-08-19T07:49:10;24.30;66.20
44517;DHT22;30223;17.182;-96.766;2022-08-19T07:51:50;24.30;66.10
44517;DHT22;30223;17.182;-96.766;2022-08-19T07:54:17;24.30;66.10
44517;DHT22;30223;17.182;-96.766;2022-08-19T07:56:45;24.30;66.20
44517;DHT22;30223;17.182;-96.766;2022-08-19T07:59:12;24.30;66.20
44517;DHT22;30223;17.182;-96.766;2022-08-19T08:01:39;24.30;66.30
44517;DHT22;30223;17.182;-96.766;2022-08-19T08:04:06;24.30;66.40
44517;DHT22;30223;17.182;-96.766;2022-08-19T08:06:53;24.30;66.30
44517;DHT22;30223;17.182;-96.766;2022-08-19T08:09:40;24.30;66.40
44517;DHT22;30223;17.182;-96.766;2022-08-19T08:12:17;24.20;66.30
44517;DHT22;30223;17.182;-96.766;2022-08-19T08:14:47;24.20;66.30
44517;DHT22;30223;17.182;-96.766;2022-08-19T08:17:19;24.20;66.40
44517;DHT22;30223;17.182;-96.766;2022-08-19T08:19:47;24.20;66.40
44517;DHT22;30223;17.182;-96.766;2022-08-19T08:22:16;24.20;66.30
44517;DHT22;30223;17.182;-96.766;2022-08-19T08:25:18;24.20;66.30
44517;DHT22;30223;17.182;-96.766;2022-08-19T08:27:46;24.20;66.40
44517;DHT22;30223;17.182;-96.766;2022-08-19T08:30:19;24.20;66.40
44517;DHT22;30223;17.182;-96.766;2022-08-19T08:32:46;24.10;66.30
44517;DHT22;30223;17.182;-96.766;2022-08-19T08:35:15;24.20;66.40
44517;DHT22;30223;17.182;-96.766;2022-08-19T08:37:43;24.10;66.30
44517;DHT22;30223;17.182;-96.766;2022-08-19T08:40:21;24.20;66.40
44517;DHT22;30223;17.182;-96.766;2022-08-19T08:42:55;24.10;66.30
44517;DHT22;30223;17.182;-96.766;2022-08-19T08:45:27;24.10;66.40
44517;DHT22;30223;17.182;-96.766;2022-08-19T08:47:57;24.10;66.40
44517;DHT22;30223;17.182;-96.766;2022-08-19T08:50:37;24.10;66.40
44517;DHT22;30223;17.182;-96.766;2022-08-19T08:53:06;24.10;66.40
44517;DHT22;30223;17.182;-96.766;2022-08-19T08:55:34;24.10;66.30
44517;DHT22;30223;17.182;-96.766;2022-08-19T08:58:05;24.10;66.30
44517;DHT22;30223;17.182;-96.766;2022-08-19T09:00:38;24.00;66.30
44517;DHT22;30223;17.182;-96.766;2022-08-19T09:03:24;24.00;66.30
44517;DHT22;30223;17.182;-96.766;2022-08-19T09:06:10;24.00;66.30
44517;DHT22;30223;17.182;-96.766;2022-08-19T09:09:03;24.00;66.30
44517;DHT22;30223;17.182;-96.766;2022-08-19T09:11:52;24.00;66.40
44517;DHT22;30223;17.182;-96.766;2022-08-19T09:16:47;24.00;66.40
44517;DHT22;30223;17.182;-96.766;2022-08-19T09:19:16;23.90;66.20
44517;DHT22;30223;17.182;-96.766;2022-08-19T09:21:43;23.90;66.20
44517;DHT22;30223;17.182;-96.766;2022-08-19T09:24:11;23.90;66.20
44517;DHT22;30223;17.182;-96.766;2022-08-19T09:26:38;23.90;66.30
44517;DHT22;30223;17.182;-96.766;2022-08-19T09:29:04;23.90;66.20
44517;DHT22;30223;17.182;-96.766;2022-08-19T09:31:32;23.90;66.30
44517;DHT22;30223;17.182;-96.766;2022-08-19T09:33:59;23.90;66.20
44517;DHT22;30223;17.182;-96.766;2022-08-19T09:36:27;23.90;66.20
44517;DHT22;30223;17.182;-96.766;2022-08-19T09:39:03;23.90;66.30
44517;DHT22;30223;17.182;-96.766;2022-08-19T09:41:31;23.90;66.20
44517;DHT22;30223;17.182;-96.766;2022-08-19T09:43:58;23.80;66.20
44517;DHT22;30223;17.182;-96.766;2022-08-19T09:46:27;23.80;66.20
44517;DHT22;30223;17.182;-96.766;2022-08-19T09:48:58;23.80;66.10
44517;DHT22;30223;17.182;-96.766;2022-08-19T09:51:27;23.80;66.10
44517;DHT22;30223;17.182;-96.766;2022-08-19T09:53:55;23.80;66.10
44517;DHT22;30223;17.182;-96.766;2022-08-19T09:56:24;23.70;66.10
44517;DHT22;30223;17.182;-96.766;2022-08-19T09:58:51;23.80;66.10
44517;DHT22;30223;17.182;-96.766;2022-08-19T10:01:23;23.70;66.10
44517;DHT22;30223;17.182;-96.766;2022-08-19T10:03:52;23.70;66.20
44517;DHT22;30223;17.182;-96.766;2022-08-19T10:06:21;23.70;66.10
44517;DHT22;30223;17.182;-96.766;2022-08-19T10:08:49;23.70;66.10
44517;DHT22;30223;17.182;-96.766;2022-08-19T10:11:18;23.70;66.10
44517;DHT22;30223;17.182;-96.766;2022-08-19T10:13:46;23.70;66.10
44517;DHT22;30223;17.182;-96.766;2022-08-19T10:16:17;23.70;66.10
44517;DHT22;30223;17.182;-96.766;2022-08-19T10:18:45;23.70;66.10
44517;DHT22;30223;17.182;-96.766;2022-08-19T10:21:15;23.70;66.10
44517;DHT22;30223;17.182;-96.766;2022-08-19T10:23:44;23.60;66.00
44517;DHT22;30223;17.182;-96.766;2022-08-19T10:26:18;23.60;66.00
44517;DHT22;30223;17.182;-96.766;2022-08-19T10:28:44;23.60;66.00
44517;DHT22;30223;17.182;-96.766;2022-08-19T10:31:14;23.60;66.00
44517;DHT22;30223;17.182;-96.766;2022-08-19T10:33:41;23.60;66.00
44517;DHT22;30223;17.182;-96.766;2022-08-19T10:36:16;23.60;66.00
44517;DHT22;30223;17.182;-96.766;2022-08-19T10:38:51;23.50;65.90
44517;DHT22;30223;17.182;-96.766;2022-08-19T10:41:21;23.50;66.00
44517;DHT22;30223;17.182;-96.766;2022-08-19T10:43:56;23.50;65.90
44517;DHT22;30223;17.182;-96.766;2022-08-19T10:46:26;23.50;65.80
44517;DHT22;30223;17.182;-96.766;2022-08-19T10:48:52;23.50;65.90
44517;DHT22;30223;17.182;-96.766;2022-08-19T10:51:20;23.50;65.90
44517;DHT22;30223;17.182;-96.766;2022-08-19T10:54:06;23.50;65.80
44517;DHT22;30223;17.182;-96.766;2022-08-19T10:56:33;23.50;65.80
44517;DHT22;30223;17.182;-96.766;2022-08-19T10:59:26;23.40;65.80
44517;DHT22;30223;17.182;-96.766;2022-08-19T11:01:58;23.40;65.80
44517;DHT22;30223;17.182;-96.766;2022-08-19T11:04:25;23.40;65.80
44517;DHT22;30223;17.182;-96.766;2022-08-19T11:06:51;23.40;65.80
44517;DHT22;30223;17.182;-96.766;2022-08-19T11:09:21;23.40;65.70
44517;DHT22;30223;17.182;-96.766;2022-08-19T11:11:51;23.40;65.70
44517;DHT22;30223;17.182;-96.766;2022-08-19T11:14:20;23.40;65.70
44517;DHT22;30223;17.182;-96.766;2022-08-19T11:16:51;23.40;65.70
44517;DHT22;30223;17.182;-96.766;2022-08-19T11:19:19;23.40;65.70
44517;DHT22;30223;17.182;-96.766;2022-08-19T11:21:48;23.40;65.70
44517;DHT22;30223;17.182;-96.766;2022-08-19T11:24:18;23.40;65.70
44517;DHT22;30223;17.182;-96.766;2022-08-19T11:26:47;23.30;65.60
44517;DHT22;30223;17.182;-96.766;2022-08-19T11:29:19;23.30;65.60
44517;DHT22;30223;17.182;-96.766;2022-08-19T11:31:49;23.30;65.60
44517;DHT22;30223;17.182;-96.766;2022-08-19T11:34:17;23.30;65.50
44517;DHT22;30223;17.182;-96.766;2022-08-19T11:36:46;23.30;65.60
44517;DHT22;30223;17.182;-96.766;2022-08-19T11:39:17;23.30;65.50
44517;DHT22;30223;17.182;-96.766;2022-08-19T11:41:44;23.30;65.50
44517;DHT22;30223;17.182;-96.766;2022-08-19T11:44:11;23.30;65.50
44517;DHT22;30223;17.182;-96.766;2022-08-19T11:46:41;23.30;65.60
44517;DHT22;30223;17.182;-96.766;2022-08-19T11:49:09;23.20;65.50
44517;DHT22;30223;17.182;-96.766;2022-08-19T11:51:36;23.20;65.40
44517;DHT22;30223;17.182;-96.766;2022-08-19T11:54:05;23.20;65.50
44517;DHT22;30223;17.182;-96.766;2022-08-19T11:56:32;23.20;65.40
44517;DHT22;30223;17.182;-96.766;2022-08-19T11:59:00;23.20;65.40
44517;DHT22;30223;17.182;-96.766;2022-08-19T12:01:27;23.20;65.50
44517;DHT22;30223;17.182;-96.766;2022-08-19T12:03:55;23.20;65.40
44517;DHT22;30223;17.182;-96.766;2022-08-19T12:06:25;23.20;65.40
44517;DHT22;30223;17.182;-96.766;2022-08-19T12:08:58;23.10;65.40
44517;DHT22;30223;17.182;-96.766;2022-08-19T12:11:26;23.10;65.40
44517;DHT22;30223;17.182;-96.766;2022-08-19T12:13:52;23.10;65.40
44517;DHT22;30223;17.182;-96.766;2022-08-19T12:16:22;23.10;65.40
44517;DHT22;30223;17.182;-96.766;2022-08-19T12:18:50;23.10;65.40
44517;DHT22;30223;17.182;-96.766;2022-08-19T12:21:20;23.10;65.30
44517;DHT22;30223;17.182;-96.766;2022-08-19T12:23:49;23.10;65.30
44517;DHT22;30223;17.182;-96.766;2022-08-19T12:26:17;23.10;65.30
44517;DHT22;30223;17.182;-96.766;2022-08-19T12:28:44;23.10;65.30
44517;DHT22;30223;17.182;-96.766;2022-08-19T12:31:11;23.10;65.30
44517;DHT22;30223;17.182;-96.766;2022-08-19T12:33:38;23.00;65.20
44517;DHT22;30223;17.182;-96.766;2022-08-19T12:36:08;23.00;65.20
44517;DHT22;30223;17.182;-96.766;2022-08-19T12:38:35;23.00;65.20
44517;DHT22;30223;17.182;-96.766;2022-08-19T12:41:03;23.00;65.20
44517;DHT22;30223;17.182;-96.766;2022-08-19T12:43:33;23.00;65.20
44517;DHT22;30223;17.182;-96.766;2022-08-19T12:46:01;23.00;65.20
44517;DHT22;30223;17.182;-96.766;2022-08-19T12:48:27;22.90;65.10
44517;DHT22;30223;17.182;-96.766;2022-08-19T12:50:55;22.90;65.10
44517;DHT22;30223;17.182;-96.766;2022-08-19T12:53:22;22.90;65.10
44517;DHT22;30223;17.182;-96.766;2022-08-19T12:55:55;22.90;65.10
44517;DHT22;30223;17.182;-96.766;2022-08-19T12:58:23;22.90;65.20
44517;DHT22;30223;17.182;-96.766;2022-08-19T13:00:49;22.90;65.20
44517;DHT22;30223;17.182;-96.766;2022-08-19T13:03:16;22.90;65.10
44517;DHT22;30223;17.182;-96.766;2022-08-19T13:05:42;22.90;65.20
44517;DHT22;30223;17.182;-96.766;2022-08-19T13:08:09;22.90;65.20
44517;DHT22;30223;17.182;-96.766;2022-08-19T13:10:37;22.80;65.10
44517;DHT22;30223;17.182;-96.766;2022-08-19T13:13:07;22.80;65.10
44517;DHT22;30223;17.182;-96.766;2022-08-19T13:15:41;22.80;65.10
44517;DHT22;30223;17.182;-96.766;2022-08-19T13:18:09;22.80;65.20
44517;DHT22;30223;17.182;-96.766;2022-08-19T13:20:38;22.80;65.20
44517;DHT22;30223;17.182;-96.766;2022-08-19T13:23:07;22.70;65.20
44517;DHT22;30223;17.182;-96.766;2022-08-19T13:25:34;22.80;65.20
44517;DHT22;30223;17.182;-96.766;2022-08-19T13:28:02;22.80;65.20
44517;DHT22;30223;17.182;-96.766;2022-08-19T13:30:29;22.80;65.30
44517;DHT22;30223;17.182;-96.766;2022-08-19T13:33:14;22.70;65.20
44517;DHT22;30223;17.182;-96.766;2022-08-19T13:35:49;22.70;65.30
44517;DHT22;30223;17.182;-96.766;2022-08-19T13:38:19;22.70;65.20
44517;DHT22;30223;17.182;-96.766;2022-08-19T13:40:47;22.70;65.30
44517;DHT22;30223;17.182;-96.766;2022-08-19T13:43:15;22.70;65.20
44517;DHT22;30223;17.182;-96.766;2022-08-19T13:45:42;22.70;65.20
44517;DHT22;30223;17.182;-96.766;2022-08-19T13:48:09;22.70;65.20
44517;DHT22;30223;17.182;-96.766;2022-08-19T13:50:40;22.70;65.20
44517;DHT22;30223;17.182;-96.766;2022-08-19T13:53:09;22.70;65.20
44517;DHT22;30223;17.182;-96.766;2022-08-19T13:55:37;22.70;65.10
44517;DHT22;30223;17.182;-96.766;2022-08-19T13:58:04;22.70;65.20
44517;DHT22;30223;17.182;-96.766;2022-08-19T14:00:35;22.70;65.10
44517;DHT22;30223;17.182;-96.766;2022-08-19T14:03:03;22.70;65.20
44517;DHT22;30223;17.182;-96.766;2022-08-19T14:05:30;22.70;65.20
44517;DHT22;30223;17.182;-96.766;2022-08-19T14:07:57;22.70;65.20
44517;DHT22;30223;17.182;-96.766;2022-08-19T14:10:25;22.70;65.20
44517;DHT22;30223;17.182;-96.766;2022-08-19T14:12:55;22.70;65.20
44517;DHT22;30223;17.182;-96.766;2022-08-19T14:15:24;22.70;65.10
44517;DHT22;30223;17.182;-96.766;2022-08-19T14:17:52;22.80;65.20
44517;DHT22;30223;17.182;-96.766;2022-08-19T14:20:19;22.80;65.20
44517;DHT22;30223;17.182;-96.766;2022-08-19T14:22:47;22.80;65.20
44517;DHT22;30223;17.182;-96.766;2022-08-19T14:25:18;22.70;65.10
44517;DHT22;30223;17.182;-96.766;2022-08-19T14:27:45;22.70;65.10
44517;DHT22;30223;17.182;-96.766;2022-08-19T14:30:15;22.70;65.10
44517;DHT22;30223;17.182;-96.766;2022-08-19T14:32:42;22.80;65.20
44517;DHT22;30223;17.182;-96.766;2022-08-19T14:35:13;22.80;65.20
44517;DHT22;30223;17.182;-96.766;2022-08-19T14:37:42;22.80;65.20
44517;DHT22;30223;17.182;-96.766;2022-08-19T14:40:09;22.70;65.20
44517;DHT22;30223;17.182;-96.766;2022-08-19T14:42:38;22.70;65.20
44517;DHT22;30223;17.182;-96.766;2022-08-19T14:45:05;22.70;65.20
44517;DHT22;30223;17.182;-96.766;2022-08-19T14:47:31;22.70;65.20
44517;DHT22;30223;17.182;-96.766;2022-08-19T14:49:58;22.70;65.30
44517;DHT22;30223;17.182;-96.766;2022-08-19T14:52:25;22.70;65.30
44517;DHT22;30223;17.182;-96.766;2022-08-19T14:54:52;22.70;65.30
44517;DHT22;30223;17.182;-96.766;2022-08-19T14:57:18;22.70;65.30
44517;DHT22;30223;17.182;-96.766;2022-08-19T14:59:46;22.70;65.40
44517;DHT22;30223;17.182;-96.766;2022-08-19T15:02:12;22.80;65.40
44517;DHT22;30223;17.182;-96.766;2022-08-19T15:04:39;22.80;65.40
44517;DHT22;30223;17.182;-96.766;2022-08-19T15:07:06;22.80;65.40
44517;DHT22;30223;17.182;-96.766;2022-08-19T15:09:33;22.80;65.50
44517;DHT22;30223;17.182;-96.766;2022-08-19T15:12:01;22.80;65.40
44517;DHT22;30223;17.182;-96.766;2022-08-19T15:14:29;22.80;65.40
44517;DHT22;30223;17.182;-96.766;2022-08-19T15:17:05;22.80;65.40
44517;DHT22;30223;17.182;-96.766;2022-08-19T15:19:32;22.80;65.40
44517;DHT22;30223;17.182;-96.766;2022-08-19T15:22:02;22.90;65.40
44517;DHT22;30223;17.182;-96.766;2022-08-19T15:24:29;22.90;65.40